Time;durP1;ratioP1;P1;durP2;ratioP2;P2;SDS_P1;SDS_P2;PMS_P1;PMS_P2;Temp;Humidity;BMP_temperature;BMP_pressure;BME280_temperature;BME280_humidity;BME280_pressure;Samples;Min_cycle;Max_cycle;Signal;HPM_P1;HPM_P2
2022/09/02 00:00:34;;;;;;;11.93;9.13;;;14.50;35.90;;;;;;5096406;28;20554;-64
2022/09/02 00:03:01;;;;;;;15.37;9.43;;;14.40;36.00;;;;;;5098017;28;21160;-64
2022/09/02 00:05:29;;;;;;;12.43;10.20;;;14.40;36.20;;;;;;5093676;28;20480;-64
2022/09/02 00:07:56;;;;;;;12.20;10.30;;;14.40;36.40;;;;;;5101616;28;20843;-64
2022/09/02 00:10:23;;;;;;;14.20;11.10;;;14.30;36.70;;;;;;5096840;28;20460;-64
2022/09/02 00:12:49;;;;;;;20.47;12.17;;;14.30;37.00;;;;;;5099604;28;20455;-64
2022/09/02 00:15:16;;;;;;;13.93;10.80;;;14.20;37.80;;;;;;5099604;27;20947;-64
2022/09/02 00:17:43;;;;;;;16.43;12.47;;;14.20;37.40;;;;;;5092083;28;20460;-63
2022/09/02 00:20:10;;;;;;;17.00;12.13;;;14.20;37.40;;;;;;5097165;28;20462;-63
2022/09/02 00:22:39;;;;;;;12.90;11.43;;;14.20;37.40;;;;;;5097575;27;20476;-64
2022/09/02 00:25:07;;;;;;;13.20;10.87;;;14.20;37.50;;;;;;5095469;27;20466;-64
2022/09/02 00:27:34;;;;;;;15.07;12.33;;;14.10;37.60;;;;;;5100480;28;20518;-64
2022/09/02 00:30:01;;;;;;;12.27;10.93;;;14.10;37.50;;;;;;5097998;28;20461;-64
2022/09/02 00:32:27;;;;;;;14.50;12.20;;;14.10;37.80;;;;;;5092905;28;20484;-64
2022/09/02 00:34:56;;;;;;;18.00;12.70;;;14.10;37.70;;;;;;5099895;28;20455;-64
2022/09/02 00:37:24;;;;;;;29.77;13.67;;;14.10;37.70;;;;;;5094070;28;20537;-64
2022/09/02 00:39:53;;;;;;;14.23;11.57;;;14.00;37.50;;;;;;5102615;28;20472;-64
2022/09/02 00:42:20;;;;;;;13.70;12.20;;;14.00;37.60;;;;;;5100350;28;20566;-64
2022/09/02 00:44:47;;;;;;;14.90;12.93;;;14.00;37.80;;;;;;5104187;28;20463;-63
2022/09/02 00:47:14;;;;;;;16.60;12.83;;;14.00;37.80;;;;;;5100996;28;20472;-64
2022/09/02 00:49:45;;;;;;;14.67;12.37;;;13.90;38.00;;;;;;5100734;28;20580;-64
2022/09/02 00:52:15;;;;;;;17.17;13.23;;;13.90;38.00;;;;;;5088104;28;20476;-64
2022/09/02 00:54:48;;;;;;;15.00;13.10;;;13.90;38.00;;;;;;5099032;27;20463;-64
2022/09/02 00:57:20;;;;;;;14.10;12.47;;;13.90;38.20;;;;;;5095879;28;20459;-64
2022/09/02 00:59:54;;;;;;;14.13;12.50;;;13.90;38.30;;;;;;5094120;28;20532;-64
2022/09/02 01:02:22;;;;;;;18.13;14.20;;;13.80;38.30;;;;;;5093843;28;20586;-63
2022/09/02 01:04:49;;;;;;;18.67;13.47;;;13.80;38.20;;;;;;5094000;28;20456;-63
2022/09/02 01:07:16;;;;;;;14.20;12.30;;;13.80;38.20;;;;;;5095353;28;20887;-63
2022/09/02 01:09:43;;;;;;;13.43;11.93;;;13.80;38.40;;;;;;5099433;28;20459;-63
2022/09/02 01:12:12;;;;;;;14.50;13.10;;;13.70;38.40;;;;;;5095905;28;20485;-64
2022/09/02 01:14:41;;;;;;;15.00;13.27;;;13.70;38.50;;;;;;5094994;28;20539;-64
2022/09/02 01:17:08;;;;;;;14.13;12.63;;;13.70;38.40;;;;;;5094507;28;20451;-64
2022/09/02 01:19:38;;;;;;;15.53;13.83;;;13.70;38.50;;;;;;5093054;28;20543;-64
2022/09/02 01:22:16;;;;;;;13.47;11.67;;;13.60;38.40;;;;;;5088378;28;20472;-64
2022/09/02 01:24:43;;;;;;;12.40;11.10;;;13.60;38.60;;;;;;5095467;28;20455;-63
2022/09/02 01:27:13;;;;;;;12.87;11.57;;;13.60;38.40;;;;;;5096945;28;20488;-64
2022/09/02 01:29:40;;;;;;;13.90;12.50;;;13.60;38.30;;;;;;5089749;28;20469;-64
2022/09/02 01:32:07;;;;;;;13.80;11.90;;;13.60;38.30;;;;;;5092632;28;20567;-64
2022/09/02 01:34:34;;;;;;;15.83;12.53;;;13.50;38.30;;;;;;5094786;28;20464;-64
2022/09/02 01:37:00;;;;;;;12.97;11.67;;;13.50;38.30;;;;;;5094130;28;20463;-63
2022/09/02 01:39:29;;;;;;;16.03;13.57;;;13.50;38.40;;;;;;5086267;28;20464;-63
2022/09/02 01:41:55;;;;;;;14.93;13.03;;;13.50;38.40;;;;;;5089885;28;20488;-64
2022/09/02 01:44:23;;;;;;;17.90;14.27;;;13.50;38.30;;;;;;5093041;28;20452;-64
2022/09/02 01:46:49;;;;;;;16.20;13.70;;;13.50;38.30;;;;;;5097965;28;20478;-63
2022/09/02 01:49:16;;;;;;;17.33;13.57;;;13.40;38.40;;;;;;5091452;28;20972;-64
2022/09/02 01:51:43;;;;;;;19.00;13.83;;;13.40;38.30;;;;;;5095174;28;20480;-64
2022/09/02 01:54:10;;;;;;;14.60;12.80;;;13.40;38.30;;;;;;5092652;28;20504;-64
2022/09/02 01:56:38;;;;;;;19.40;14.17;;;13.40;38.40;;;;;;5096153;28;20452;-63
2022/09/02 01:59:06;;;;;;;18.00;13.50;;;13.40;38.50;;;;;;5095019;28;20456;-64
2022/09/02 02:01:33;;;;;;;17.40;13.30;;;13.30;38.50;;;;;;5087694;28;20557;-63
2022/09/02 02:04:01;;;;;;;16.93;13.50;;;13.30;38.40;;;;;;5093294;28;20451;-63
2022/09/02 02:06:28;;;;;;;19.70;15.10;;;13.20;38.60;;;;;;5091026;28;20484;-63
2022/09/02 02:08:55;;;;;;;16.00;13.50;;;13.30;38.60;;;;;;5090217;28;20619;-63
2022/09/02 02:11:23;;;;;;;22.87;14.03;;;13.30;38.60;;;;;;5094214;28;21009;-63
2022/09/02 02:13:52;;;;;;;20.30;15.93;;;13.20;38.60;;;;;;5092258;28;20463;-64
2022/09/02 02:16:18;;;;;;;17.33;13.10;;;13.20;38.50;;;;;;5092157;28;20463;-64
2022/09/02 02:18:45;;;;;;;18.37;13.53;;;13.20;38.70;;;;;;5100574;28;20471;-64
2022/09/02 02:21:12;;;;;;;17.17;13.50;;;13.20;38.80;;;;;;5102186;27;20480;-64
2022/09/02 02:23:39;;;;;;;14.30;12.43;;;13.10;38.70;;;;;;5101249;28;20509;-64
2022/09/02 02:26:06;;;;;;;18.53;13.17;;;13.10;38.80;;;;;;5102345;28;20499;-64
2022/09/02 02:28:33;;;;;;;17.73;14.27;;;13.10;38.80;;;;;;5095096;27;20549;-63
2022/09/02 02:31:01;;;;;;;17.13;13.03;;;13.10;38.90;;;;;;5092701;28;20471;-65
2022/09/02 02:33:28;;;;;;;19.20;14.20;;;13.10;39.00;;;;;;5102292;27;20463;-64
2022/09/02 02:35:55;;;;;;;16.00;13.93;;;13.00;38.90;;;;;;5099951;27;20502;-64
2022/09/02 02:38:23;;;;;;;19.37;13.63;;;13.00;38.90;;;;;;5097056;28;20455;-63
2022/09/02 02:40:50;;;;;;;18.33;13.00;;;13.00;38.90;;;;;;5100798;28;20478;-63
2022/09/02 02:43:16;;;;;;;14.80;12.53;;;13.00;39.20;;;;;;5098256;28;20450;-63
2022/09/02 02:45:43;;;;;;;13.40;12.00;;;12.90;39.20;;;;;;5105204;28;20451;-63
2022/09/02 02:48:12;;;;;;;13.37;11.77;;;12.90;39.20;;;;;;5102504;28;20462;-63
2022/09/02 02:50:39;;;;;;;15.60;12.30;;;13.00;39.20;;;;;;5103221;27;20463;-63
2022/09/02 02:53:06;;;;;;;17.63;12.10;;;12.90;39.20;;;;;;5090792;28;21020;-63
2022/09/02 02:55:32;;;;;;;13.00;11.37;;;12.90;39.20;;;;;;5100273;28;20471;-64
2022/09/02 02:58:00;;;;;;;14.63;12.93;;;12.90;39.20;;;;;;5099755;28;20901;-63
2022/09/02 03:00:29;;;;;;;14.00;12.50;;;12.90;39.10;;;;;;5096858;28;21142;-64
2022/09/02 03:02:57;;;;;;;14.33;11.67;;;12.90;39.20;;;;;;5096431;28;20470;-63
2022/09/02 03:05:27;;;;;;;13.53;12.13;;;12.90;39.20;;;;;;5092753;28;20535;-64
2022/09/02 03:07:54;;;;;;;12.83;10.73;;;12.80;39.20;;;;;;5092695;28;20483;-63
2022/09/02 03:10:22;;;;;;;15.00;12.67;;;12.70;39.50;;;;;;5099703;27;20471;-63
2022/09/02 03:12:51;;;;;;;17.67;14.30;;;12.70;39.60;;;;;;5095424;27;20466;-63
2022/09/02 03:15:19;;;;;;;16.47;13.10;;;12.70;39.70;;;;;;5101949;28;20455;-64
2022/09/02 03:17:47;;;;;;;16.40;12.87;;;12.70;39.70;;;;;;5096310;28;20456;-64
2022/09/02 03:20:16;;;;;;;18.23;14.73;;;12.70;39.80;;;;;;5097030;27;20462;-63
2022/09/02 03:22:46;;;;;;;15.60;13.43;;;12.60;40.00;;;;;;5095265;28;20567;-63
2022/09/02 03:25:15;;;;;;;15.40;13.40;;;12.60;40.00;;;;;;5094886;28;20456;-63
2022/09/02 03:27:44;;;;;;;17.43;12.40;;;12.60;39.90;;;;;;5106469;28;20475;-64
2022/09/02 03:30:14;;;;;;;16.97;12.77;;;12.60;39.80;;;;;;5101857;28;20617;-65
2022/09/02 03:32:41;;;;;;;18.67;12.57;;;12.60;39.90;;;;;;5097399;27;20479;-64
2022/09/02 03:35:11;;;;;;;15.53;12.53;;;12.60;39.70;;;;;;5098976;28;20467;-63
2022/09/02 03:37:38;;;;;;;13.97;12.47;;;12.60;39.70;;;;;;5104015;28;20534;-63
2022/09/02 03:40:10;;;;;;;20.27;13.80;;;12.60;39.80;;;;;;5097033;28;20838;-64
2022/09/02 03:42:37;;;;;;;18.40;13.37;;;12.50;39.70;;;;;;5100820;28;20471;-64
2022/09/02 03:45:06;;;;;;;15.60;12.90;;;12.50;39.70;;;;;;5097816;28;20458;-63
2022/09/02 03:47:33;;;;;;;14.63;12.63;;;12.50;39.70;;;;;;5100435;28;20476;-63
2022/09/02 03:50:01;;;;;;;14.90;12.17;;;12.50;39.80;;;;;;5093631;27;20471;-63
2022/09/02 03:52:28;;;;;;;17.10;13.07;;;12.50;39.80;;;;;;5095411;28;20484;-63
2022/09/02 03:54:55;;;;;;;14.17;12.67;;;12.50;39.80;;;;;;5096135;28;20456;-64
2022/09/02 03:57:25;;;;;;;16.30;12.57;;;12.50;39.70;;;;;;5102400;28;20465;-63
2022/09/02 03:59:52;;;;;;;14.30;12.30;;;12.50;39.70;;;;;;5094798;28;20824;-64
2022/09/02 04:02:19;;;;;;;15.80;12.00;;;12.40;39.70;;;;;;5090803;28;20495;-63
2022/09/02 04:04:46;;;;;;;16.60;12.83;;;12.40;39.70;;;;;;5097191;28;20455;-63
2022/09/02 04:07:13;;;;;;;16.40;13.27;;;12.40;39.70;;;;;;5093050;27;20476;-64
2022/09/02 04:09:40;;;;;;;18.03;13.17;;;12.40;39.70;;;;;;5099440;28;21078;-63
2022/09/02 04:12:07;;;;;;;17.63;12.47;;;12.30;39.70;;;;;;5099857;28;20519;-64
2022/09/02 04:14:35;;;;;;;16.60;13.20;;;12.30;39.90;;;;;;5099854;27;20455;-64
2022/09/02 04:17:02;;;;;;;14.00;12.17;;;12.30;39.90;;;;;;5102465;28;21136;-63
2022/09/02 04:19:29;;;;;;;12.97;11.60;;;12.30;40.00;;;;;;5100436;28;21043;-63
2022/09/02 04:21:56;;;;;;;15.23;12.07;;;12.20;40.10;;;;;;5094360;28;20856;-63
2022/09/02 04:24:23;;;;;;;13.13;11.70;;;12.20;40.00;;;;;;5095415;28;20467;-63
2022/09/02 04:26:50;;;;;;;13.03;11.63;;;12.20;40.10;;;;;;5095971;28;20479;-64
2022/09/02 04:29:17;;;;;;;17.80;12.80;;;12.30;40.20;;;;;;5092513;28;20464;-63
2022/09/02 04:31:45;;;;;;;13.73;12.30;;;12.20;40.10;;;;;;5089916;28;20480;-64
2022/09/02 04:34:12;;;;;;;12.37;11.00;;;12.20;40.20;;;;;;5094405;28;20456;-63
2022/09/02 04:36:39;;;;;;;13.07;11.37;;;12.20;40.20;;;;;;5095794;28;20456;-63
2022/09/02 04:39:07;;;;;;;13.80;12.10;;;12.20;40.20;;;;;;5095912;28;20464;-64
2022/09/02 04:41:35;;;;;;;13.50;11.00;;;12.20;40.10;;;;;;5094626;28;20484;-63
2022/09/02 04:44:03;;;;;;;14.37;11.43;;;12.20;40.30;;;;;;5097584;28;20455;-64
2022/09/02 04:46:29;;;;;;;13.10;11.27;;;12.20;40.00;;;;;;5088348;28;20498;-63
2022/09/02 04:48:58;;;;;;;13.80;11.53;;;12.20;40.00;;;;;;5099898;27;20480;-63
2022/09/02 04:51:26;;;;;;;13.93;10.80;;;12.20;40.00;;;;;;5095872;28;20480;-63
2022/09/02 04:53:53;;;;;;;15.07;11.33;;;12.30;40.10;;;;;;5100164;28;20466;-63
2022/09/02 04:56:22;;;;;;;14.17;10.83;;;12.30;40.30;;;;;;5091010;28;20479;-63
2022/09/02 04:58:50;;;;;;;12.70;11.03;;;12.30;40.70;;;;;;5092450;27;20481;-63
2022/09/02 05:01:19;;;;;;;12.73;9.93;;;12.40;41.10;;;;;;5089516;28;20480;-64
2022/09/02 05:03:47;;;;;;;14.60;12.57;;;12.50;41.30;;;;;;5091107;28;20586;-64
2022/09/02 05:06:17;;;;;;;12.97;10.20;;;12.60;40.90;;;;;;5092138;28;20456;-64
2022/09/02 05:08:46;;;;;;;14.53;11.10;;;12.80;40.10;;;;;;5089256;28;20476;-63
2022/09/02 05:11:17;;;;;;;13.27;10.40;;;13.00;39.20;;;;;;5093938;28;20484;-63
2022/09/02 05:13:47;;;;;;;11.77;10.20;;;13.30;38.70;;;;;;5096413;28;20468;-63
2022/09/02 05:16:15;;;;;;;11.63;10.50;;;13.80;37.90;;;;;;5101775;28;20491;-63
2022/09/02 05:18:42;;;;;;;13.47;9.77;;;14.40;36.60;;;;;;5094225;28;20462;-64
2022/09/02 05:21:09;;;;;;;14.50;8.97;;;14.80;35.10;;;;;;5095994;27;20479;-64
2022/09/02 05:23:37;;;;;;;9.13;8.07;;;15.10;34.10;;;;;;5092088;28;20463;-64
2022/09/02 05:26:04;;;;;;;9.60;7.80;;;15.30;33.00;;;;;;5091713;28;21115;-63
2022/09/02 05:28:31;;;;;;;9.00;7.37;;;15.50;32.20;;;;;;5093334;28;20476;-63
2022/09/02 05:31:04;;;;;;;8.13;6.90;;;15.50;32.40;;;;;;5090805;28;20594;-63
2022/09/02 05:33:31;;;;;;;7.83;6.50;;;15.80;32.20;;;;;;5099788;28;20456;-63
2022/09/02 05:35:58;;;;;;;12.37;6.47;;;16.00;32.00;;;;;;5098378;28;20459;-64
2022/09/02 05:38:25;;;;;;;7.10;6.07;;;16.20;31.70;;;;;;5096403;28;20456;-64
2022/09/02 05:40:53;;;;;;;7.80;5.90;;;16.40;31.40;;;;;;5094330;28;20475;-64
2022/09/02 05:43:19;;;;;;;7.17;5.80;;;16.60;30.60;;;;;;5097649;28;20456;-63
2022/09/02 05:45:47;;;;;;;10.23;6.17;;;16.80;29.30;;;;;;5097310;28;20475;-64
2022/09/02 05:50:58;;;;;;;7.60;5.33;;;17.70;26.80;;;;;;5097049;28;20460;-64
2022/09/02 05:53:25;;;;;;;7.73;5.87;;;18.10;25.00;;;;;;5097069;28;20459;-64
2022/09/02 05:55:53;;;;;;;7.47;5.20;;;18.50;23.70;;;;;;5098736;28;20455;-64
2022/09/02 05:58:20;;;;;;;7.90;5.27;;;18.70;22.80;;;;;;5095416;28;21100;-64
2022/09/02 06:00:47;;;;;;;8.70;5.80;;;19.10;21.90;;;;;;5084290;28;21027;-64
2022/09/02 06:03:17;;;;;;;9.13;6.03;;;19.90;20.30;;;;;;5091675;28;20467;-64
2022/09/02 06:05:54;;;;;;;9.37;5.33;;;20.90;18.50;;;;;;5094372;28;20458;-64
2022/09/02 06:08:20;;;;;;;8.20;5.80;;;22.20;16.20;;;;;;5104346;28;20486;-65
2022/09/02 06:10:47;;;;;;;7.73;5.43;;;23.40;13.60;;;;;;5097249;28;20474;-65
2022/09/02 06:13:20;;;;;;;6.80;4.97;;;24.50;11.30;;;;;;5092512;28;20455;-67
2022/09/02 06:15:47;;;;;;;7.43;5.00;;;25.70;9.00;;;;;;5094343;28;20672;-67
2022/09/02 06:18:13;;;;;;;6.80;5.53;;;26.90;6.70;;;;;;5099220;28;20455;-67
2022/09/02 06:20:41;;;;;;;7.20;4.30;;;27.90;4.50;;;;;;5102140;28;20451;-67
2022/09/02 06:23:07;;;;;;;7.63;4.73;;;29.00;3.30;;;;;;5093710;28;20491;-67
2022/09/02 06:25:37;;;;;;;6.53;4.77;;;30.10;1.80;;;;;;5096270;28;20458;-67
2022/09/02 06:28:03;;;;;;;7.90;4.20;;;31.10;1.00;;;;;;5088883;28;20464;-67
2022/09/02 06:30:32;;;;;;;6.10;3.90;;;32.00;1.00;;;;;;5089875;28;20451;-67
2022/09/02 06:32:59;;;;;;;6.40;4.20;;;32.90;1.00;;;;;;5090949;28;20475;-67
2022/09/02 06:35:26;;;;;;;5.37;4.37;;;33.80;1.00;;;;;;5093508;28;20463;-68
2022/09/02 06:37:53;;;;;;;5.73;3.50;;;34.60;1.00;;;;;;5093991;28;20456;-68
2022/09/02 06:40:19;;;;;;;7.37;4.10;;;35.20;1.00;;;;;;5099553;28;21150;-68
2022/09/02 06:42:47;;;;;;;4.53;3.30;;;35.60;1.00;;;;;;5090491;28;20598;-68
2022/09/02 06:45:13;;;;;;;5.87;3.60;;;36.50;1.00;;;;;;5091037;28;20454;-68
2022/09/02 06:47:42;;;;;;;5.10;3.40;;;37.40;1.00;;;;;;5090124;28;20510;-69
2022/09/02 06:50:09;;;;;;;6.07;3.40;;;38.10;1.00;;;;;;5089876;28;20460;-68
2022/09/02 06:52:35;;;;;;;5.37;3.63;;;38.60;1.00;;;;;;5085320;28;21977;-68
2022/09/02 06:55:02;;;;;;;4.47;3.27;;;39.00;1.00;;;;;;5095592;28;20456;-68
2022/09/02 06:57:29;;;;;;;4.53;3.30;;;39.40;1.00;;;;;;5101849;28;21142;-68
2022/09/02 06:59:56;;;;;;;5.47;3.57;;;39.70;1.00;;;;;;5087476;28;21335;-68
2022/09/02 07:02:23;;;;;;;4.30;2.60;;;40.10;1.00;;;;;;5091023;28;20586;-69
2022/09/02 07:05:08;;;;;;;5.70;2.90;;;40.30;1.00;;;;;;5090527;28;20468;-69
2022/09/02 07:07:36;;;;;;;6.10;3.10;;;40.30;1.00;;;;;;5101952;28;20873;-68
2022/09/02 07:10:03;;;;;;;4.00;2.50;;;39.80;1.00;;;;;;5107930;28;20451;-68
2022/09/02 07:12:30;;;;;;;5.30;3.13;;;39.90;1.00;;;;;;5102803;28;20557;-68
2022/09/02 07:14:57;;;;;;;5.30;2.60;;;40.40;1.00;;;;;;5104965;27;20501;-68
2022/09/02 07:17:24;;;;;;;4.57;2.80;;;41.20;1.00;;;;;;5102162;28;20456;-69
2022/09/02 07:19:54;;;;;;;4.20;2.87;;;41.50;1.00;;;;;;5099111;28;21041;-68
2022/09/02 07:22:21;;;;;;;4.70;2.80;;;41.30;1.00;;;;;;5098712;27;20480;-68
2022/09/02 07:24:48;;;;;;;6.07;3.30;;;41.50;1.00;;;;;;5099163;28;20465;-68
2022/09/02 07:27:15;;;;;;;4.60;3.15;;;41.90;1.00;;;;;;5101079;28;20455;-68
2022/09/02 07:29:42;;;;;;;4.90;2.60;;;42.20;1.00;;;;;;5107959;28;20466;-69
2022/09/02 07:32:10;;;;;;;3.80;2.30;;;42.50;1.00;;;;;;5100827;28;20978;-69
2022/09/02 07:34:36;;;;;;;4.30;2.70;;;42.90;1.00;;;;;;5096351;28;20844;-69
2022/09/02 07:37:05;;;;;;;3.70;2.30;;;43.60;1.00;;;;;;5095266;28;20456;-69
2022/09/02 07:39:32;;;;;;;4.80;2.60;;;43.90;1.00;;;;;;5107507;28;20479;-69
2022/09/02 07:41:59;;;;;;;3.90;2.30;;;43.90;1.00;;;;;;5106978;28;20467;-69
2022/09/02 07:44:25;;;;;;;4.20;2.63;;;43.30;1.00;;;;;;5096199;28;20455;-68
2022/09/02 07:46:52;;;;;;;4.33;2.70;;;43.00;1.00;;;;;;5100762;28;20452;-69
2022/09/02 07:49:20;;;;;;;4.40;2.40;;;43.00;1.00;;;;;;5108788;22;20539;-69
2022/09/02 07:51:48;;;;;;;3.80;2.40;;;43.70;1.00;;;;;;5122354;27;20450;-69
2022/09/02 07:54:18;;;;;;;3.77;2.03;;;44.30;1.00;;;;;;5113378;27;20439;-69
2022/09/02 07:56:45;;;;;;;4.77;2.57;;;44.50;1.00;;;;;;5119839;27;20459;-70
2022/09/02 07:59:12;;;;;;;4.37;2.40;;;45.10;1.00;;;;;;5123509;27;21099;-69
2022/09/02 08:01:42;;;;;;;6.30;2.27;;;45.50;1.00;;;;;;5120004;27;20485;-69
2022/09/02 08:04:09;;;;;;;4.97;2.23;;;45.30;1.00;;;;;;5119948;27;20872;-69
2022/09/02 08:06:36;;;;;;;6.23;2.10;;;45.20;1.00;;;;;;5116601;27;20452;-69
2022/09/02 08:09:05;;;;;;;5.97;2.33;;;45.40;1.00;;;;;;5121142;27;21063;-70
2022/09/02 08:11:38;;;;;;;5.00;2.50;;;45.30;1.00;;;;;;5117792;27;20452;-69
2022/09/02 08:14:06;;;;;;;4.20;2.13;;;45.50;1.00;;;;;;5110805;27;20520;-69
2022/09/02 08:16:33;;;;;;;4.50;2.23;;;45.50;1.00;;;;;;5113986;27;21052;-70
2022/09/02 08:18:59;;;;;;;4.23;2.30;;;45.50;1.00;;;;;;5110320;27;20451;-69
2022/09/02 08:21:26;;;;;;;4.07;2.30;;;45.80;1.00;;;;;;5116529;27;20878;-69
2022/09/02 08:23:53;;;;;;;4.70;2.07;;;46.10;1.00;;;;;;5113324;27;20451;-65
2022/09/02 08:26:20;;;;;;;4.73;2.43;;;46.60;1.00;;;;;;5114368;27;20947;-70
2022/09/02 08:28:48;;;;;;;7.20;2.17;;;46.80;1.00;;;;;;5111662;27;20482;-70
2022/09/02 08:31:15;;;;;;;4.07;2.17;;;47.00;1.00;;;;;;5119531;27;20477;-70
2022/09/02 08:33:42;;;;;;;4.30;2.27;;;47.30;1.00;;;;;;5119394;27;20454;-71
2022/09/02 08:36:10;;;;;;;5.57;2.47;;;47.20;1.00;;;;;;5118206;27;20457;-70
2022/09/02 08:38:37;;;;;;;4.47;2.43;;;47.10;1.00;;;;;;5114618;27;20447;-70
2022/09/02 08:41:13;;;;;;;3.60;2.10;;;47.20;1.00;;;;;;5122043;27;20557;-70
2022/09/02 08:43:44;;;;;;;5.40;1.93;;;47.30;1.00;;;;;;5119451;27;20467;-70
2022/09/02 08:46:15;;;;;;;4.00;2.00;;;47.70;1.00;;;;;;5125566;27;20546;-70
2022/09/02 08:48:48;;;;;;;3.80;1.67;;;47.10;1.00;;;;;;5116910;27;20470;-70
2022/09/02 08:51:19;;;;;;;4.00;1.90;;;46.70;1.00;;;;;;5118005;27;20819;-70
2022/09/02 08:53:51;;;;;;;4.23;1.80;;;46.80;1.00;;;;;;5110521;27;20447;-70
2022/09/02 08:56:19;;;;;;;4.37;1.80;;;47.30;1.00;;;;;;5120627;27;20883;-70
2022/09/02 08:58:51;;;;;;;3.80;1.60;;;47.90;1.00;;;;;;5120306;27;20442;-70
2022/09/02 09:01:28;;;;;;;3.33;1.70;;;48.40;1.00;;;;;;5110198;27;20477;-70
2022/09/02 09:04:17;;;;;;;4.40;1.70;;;48.60;1.00;;;;;;5113141;27;20457;-70
2022/09/02 09:07:03;;;;;;;5.07;1.90;;;48.10;1.00;;;;;;5116830;27;20511;-71
2022/09/02 09:09:42;;;;;;;3.93;1.63;;;47.50;1.00;;;;;;5115060;27;21022;-70
2022/09/02 09:12:14;;;;;;;3.20;1.50;;;46.80;1.00;;;;;;5116547;27;20477;-70
2022/09/02 09:14:50;;;;;;;3.73;1.67;;;46.50;1.00;;;;;;5116701;27;20566;-70
2022/09/02 09:17:26;;;;;;;4.40;1.63;;;46.10;1.00;;;;;;5116686;27;20479;-70
2022/09/02 09:19:53;;;;;;;3.93;1.77;;;46.00;1.00;;;;;;5123364;27;20515;-70
2022/09/02 09:22:24;;;;;;;3.70;1.73;;;44.50;1.00;;;;;;5113651;27;20455;-69
2022/09/02 09:24:51;;;;;;;4.93;1.50;;;44.30;1.00;;;;;;5118014;27;20446;-70
2022/09/02 09:27:19;;;;;;;3.80;1.50;;;44.30;1.00;;;;;;5121032;27;20454;-70
2022/09/02 09:29:47;;;;;;;3.37;1.47;;;44.60;1.00;;;;;;5114832;27;21024;-70
2022/09/02 09:32:25;;;;;;;3.70;1.30;;;45.10;1.00;;;;;;5123725;27;20842;-69
2022/09/02 09:35:00;;;;;;;3.77;1.50;;;45.80;1.00;;;;;;5111897;27;20458;-69
2022/09/02 09:37:36;;;;;;;3.93;1.67;;;45.80;1.00;;;;;;5115815;27;20467;-70
2022/09/02 09:40:22;;;;;;;4.00;1.77;;;45.40;1.00;;;;;;5114195;27;20479;-70
2022/09/02 09:42:53;;;;;;;4.13;1.80;;;45.20;1.00;;;;;;5116590;27;20830;-69
2022/09/02 09:45:25;;;;;;;5.40;1.70;;;44.50;1.00;;;;;;5118988;27;20483;-69
2022/09/02 09:48:26;;;;;;;3.60;1.67;;;44.10;1.00;;;;;;5123343;27;20448;-69
2022/09/02 09:51:17;;;;;;;4.10;1.93;;;43.70;1.00;;;;;;5108905;27;20475;-69
2022/09/02 09:53:44;;;;;;;3.70;1.60;;;43.30;1.00;;;;;;5117936;27;20976;-70
2022/09/02 09:56:27;;;;;;;3.87;1.40;;;43.50;1.00;;;;;;5121831;27;20462;-69
2022/09/02 09:58:54;;;;;;;4.57;1.90;;;43.20;1.00;;;;;;5119875;27;20442;-69
2022/09/02 10:01:23;;;;;;;5.40;1.60;;;43.40;1.00;;;;;;5112830;27;20485;-70
2022/09/02 10:03:53;;;;;;;4.60;1.90;;;43.70;1.00;;;;;;5109795;27;21271;-70
2022/09/02 10:06:22;;;;;;;4.60;1.77;;;43.40;1.00;;;;;;5112821;27;20447;-72
2022/09/02 10:08:54;;;;;;;4.03;1.50;;;43.20;1.00;;;;;;5112234;27;20483;-66
2022/09/02 10:11:24;;;;;;;5.67;2.40;;;43.70;1.00;;;;;;5107621;27;20483;-65
2022/09/02 10:13:52;;;;;;;5.23;1.30;;;43.40;1.00;;;;;;5107298;28;20864;-66
2022/09/02 10:16:36;;;;;;;3.70;1.60;;;43.00;1.00;;;;;;5108540;27;20813;-66
2022/09/02 10:19:12;;;;;;;5.67;1.30;;;42.90;1.00;;;;;;5115171;27;20939;-67
2022/09/02 10:21:58;;;;;;;4.60;1.40;;;42.90;1.00;;;;;;5114288;27;20466;-65
2022/09/02 10:24:44;;;;;;;4.40;1.67;;;42.20;1.00;;;;;;5108257;27;20969;-66
2022/09/02 10:27:16;;;;;;;4.37;1.47;;;42.00;1.00;;;;;;5110630;27;20465;-69
2022/09/02 10:29:52;;;;;;;3.30;1.40;;;42.40;1.00;;;;;;5115383;27;20482;-70
2022/09/02 10:32:48;;;;;;;3.50;1.20;;;42.80;1.00;;;;;;5111295;27;20490;-69
2022/09/02 10:35:24;;;;;;;4.00;1.20;;;42.70;1.00;;;;;;5087501;27;20456;-69
2022/09/02 10:38:04;;;;;;;4.20;1.30;;;42.70;1.00;;;;;;5112321;27;20455;-70
2022/09/02 10:40:40;;;;;;;3.60;1.43;;;42.70;1.00;;;;;;5118780;27;20474;-69
2022/09/02 10:43:09;;;;;;;4.07;1.70;;;42.40;1.00;;;;;;5115394;27;20486;-69
2022/09/02 10:45:43;;;;;;;4.30;1.37;;;41.90;1.00;;;;;;5118087;27;20469;-69
2022/09/02 10:48:27;;;;;;;4.57;1.37;;;41.60;1.00;;;;;;5119071;27;20466;-62
2022/09/02 10:51:00;;;;;;;4.10;1.43;;;40.80;1.00;;;;;;5118166;27;20489;-67
2022/09/02 10:53:45;;;;;;;7.00;1.93;;;40.10;1.00;;;;;;5111840;27;20450;-70
2022/09/02 10:56:17;;;;;;;3.53;1.47;;;40.20;1.00;;;;;;5113845;27;20448;-68
2022/09/02 10:58:49;;;;;;;3.40;1.40;;;39.70;1.00;;;;;;5114020;27;20451;-68
2022/09/02 11:01:21;;;;;;;4.60;1.60;;;38.70;1.00;;;;;;5111578;27;21014;-66
2022/09/02 11:04:00;;;;;;;4.27;1.67;;;38.00;1.00;;;;;;5114862;27;20462;-67
2022/09/02 11:06:32;;;;;;;3.17;1.10;;;36.60;1.00;;;;;;5114531;27;20451;-68
2022/09/02 11:09:02;;;;;;;4.07;1.60;;;35.20;1.00;;;;;;5113890;27;20487;-70
2022/09/02 11:11:36;;;;;;;4.10;1.33;;;34.00;1.00;;;;;;5114896;27;20486;-67
2022/09/02 11:14:14;;;;;;;4.80;1.40;;;32.00;1.00;;;;;;5110128;27;20454;-69
2022/09/02 11:16:47;;;;;;;5.07;1.60;;;30.60;1.00;;;;;;5107448;27;20467;-69
2022/09/02 11:19:20;;;;;;;6.07;1.83;;;29.50;1.00;;;;;;5118700;27;20457;-69
2022/09/02 11:21:58;;;;;;;5.00;1.50;;;28.60;1.00;;;;;;5113292;27;20545;-68
2022/09/02 11:24:32;;;;;;;6.37;1.47;;;27.80;1.00;;;;;;5108523;27;20504;-69
2022/09/02 11:27:05;;;;;;;7.03;1.73;;;27.10;1.00;;;;;;5121738;27;20469;-70
2022/09/02 11:29:43;;;;;;;7.77;1.80;;;26.50;1.00;;;;;;5111172;27;21005;-69
2022/09/02 11:32:18;;;;;;;3.90;1.73;;;26.00;1.00;;;;;;5116319;27;20557;-69
2022/09/02 11:34:48;;;;;;;5.00;2.00;;;25.60;1.00;;;;;;5117756;27;20473;-69
2022/09/02 11:37:27;;;;;;;6.57;2.03;;;25.40;2.10;;;;;;5118786;27;20447;-69
2022/09/02 11:39:59;;;;;;;3.70;1.60;;;25.10;2.20;;;;;;5120131;27;20470;-68
2022/09/02 11:42:40;;;;;;;4.73;2.10;;;24.80;3.10;;;;;;5119787;27;20989;-69
2022/09/02 11:45:40;;;;;;;4.67;2.07;;;24.50;3.60;;;;;;5123606;27;20546;-68
2022/09/02 11:48:49;;;;;;;3.70;1.47;;;24.30;4.50;;;;;;5115130;27;20466;-69
2022/09/02 11:51:37;;;;;;;4.63;1.70;;;24.20;4.50;;;;;;5112739;27;20489;-69
2022/09/02 11:54:07;;;;;;;4.93;1.60;;;24.10;4.80;;;;;;5117823;27;20546;-68
2022/09/02 11:56:38;;;;;;;6.63;2.30;;;24.10;5.30;;;;;;5115902;27;20454;-69
2022/09/02 11:59:06;;;;;;;4.23;1.67;;;23.90;5.60;;;;;;5116704;27;20447;-69
2022/09/02 12:01:37;;;;;;;4.80;1.87;;;23.80;5.30;;;;;;5121070;27;20479;-69
2022/09/02 12:04:06;;;;;;;7.40;1.97;;;23.70;5.20;;;;;;5115052;27;20459;-69
2022/09/02 12:06:33;;;;;;;5.20;2.10;;;23.60;5.50;;;;;;5109738;27;20459;-69
2022/09/02 12:09:10;;;;;;;5.27;1.80;;;23.60;5.60;;;;;;5114516;27;20475;-69
2022/09/02 12:11:55;;;;;;;5.30;1.90;;;23.50;6.30;;;;;;5117631;27;20451;-69
2022/09/02 12:14:59;;;;;;;4.80;1.70;;;23.50;6.60;;;;;;5117876;27;20504;-69
2022/09/02 12:18:01;;;;;;;4.17;1.77;;;23.40;7.10;;;;;;5112118;27;20598;-68
2022/09/02 12:21:06;;;;;;;7.53;1.90;;;23.40;6.30;;;;;;5100031;27;21010;-69
2022/09/02 12:24:11;;;;;;;3.90;1.50;;;23.30;7.30;;;;;;5116217;27;20458;-69
2022/09/02 12:27:11;;;;;;;4.77;1.57;;;23.40;7.60;;;;;;5116511;27;21160;-68
2022/09/02 12:29:38;;;;;;;5.30;1.87;;;23.40;6.50;;;;;;5021104;28;21314;-69
2022/09/02 12:32:05;;;;;;;4.23;1.73;;;23.40;6.60;;;;;;5096718;27;20478;-69
2022/09/02 12:34:55;;;;;;;5.10;1.60;;;23.30;6.60;;;;;;5116763;27;20457;-69
2022/09/02 12:37:52;;;;;;;8.20;1.77;;;23.30;7.20;;;;;;5113459;27;20475;-70
2022/09/02 12:40:27;;;;;;;4.53;1.77;;;23.30;5.80;;;;;;5112599;27;20471;-68
2022/09/02 12:42:59;;;;;;;6.73;2.00;;;23.20;6.30;;;;;;5114108;27;20547;-69
2022/09/02 12:45:30;;;;;;;4.30;1.77;;;23.00;6.30;;;;;;5118555;27;20451;-70
2022/09/02 12:48:01;;;;;;;4.80;1.70;;;23.00;6.10;;;;;;5120105;27;20466;-68
2022/09/02 12:50:33;;;;;;;4.70;1.97;;;22.90;5.30;;;;;;5114785;27;20482;-68
2022/09/02 12:53:20;;;;;;;4.37;1.67;;;22.90;6.10;;;;;;5114782;27;21001;-68
2022/09/02 12:55:55;;;;;;;4.57;1.70;;;22.80;6.30;;;;;;5112134;27;20463;-69
2022/09/02 12:58:24;;;;;;;3.83;1.63;;;22.80;7.60;;;;;;5116863;27;20984;-69
2022/09/02 13:01:13;;;;;;;4.33;1.70;;;22.80;6.90;;;;;;5116401;27;20462;-69
2022/09/02 13:04:16;;;;;;;4.70;2.03;;;22.80;7.40;;;;;;5112827;27;20470;-69